Time;durP1;ratioP1;P1;durP2;ratioP2;P2;SDS_P1;SDS_P2;PMS_P1;PMS_P2;Temp;Humidity;BMP_temperature;BMP_pressure;BME280_temperature;BME280_humidity;BME280_pressure;Samples;Min_cycle;Max_cycle;Signal;HPM_P1;HPM_P2
2023/04/13 00:00:35;;;;;;;18.15;13.20;;;;;;;11.56;40.78;150197.88;5085608;28;20031;-63
2023/04/13 00:03:02;;;;;;;21.75;14.18;;;;;;;11.60;40.96;150206.88;5083756;28;20079;-64
2023/04/13 00:05:29;;;;;;;24.23;13.80;;;;;;;11.49;40.54;150178.63;5084122;28;20028;-63
2023/04/13 00:07:55;;;;;;;20.60;13.80;;;;;;;11.56;40.50;150196.59;5084040;28;20040;-63
2023/04/13 00:10:22;;;;;;;18.67;13.98;;;;;;;11.57;40.98;150200.44;5082110;28;20036;-62
2023/04/13 00:12:49;;;;;;;18.88;13.73;;;;;;;11.50;40.72;150182.50;5104431;28;20055;-63
2023/04/13 00:15:18;;;;;;;21.85;14.02;;;;;;;11.41;41.04;150159.38;5103876;28;20128;-62
2023/04/13 00:17:44;;;;;;;18.63;13.32;;;;;;;11.38;41.20;150151.66;5091389;28;20035;-63
2023/04/13 00:20:13;;;;;;;17.75;13.57;;;;;;;11.39;41.32;150155.53;5082563;28;20024;-63
2023/04/13 00:22:41;;;;;;;19.17;13.55;;;;;;;11.34;41.49;150141.41;5091611;28;20044;-64
2023/04/13 00:25:07;;;;;;;21.20;12.93;;;;;;;11.37;41.65;150149.09;5083526;28;20035;-64
2023/04/13 00:27:34;;;;;;;21.65;13.52;;;;;;;11.33;41.74;150140.13;5102561;28;20210;-63
2023/04/13 00:29:59;;;;;;;17.83;13.80;;;;;;;11.14;41.86;150092.63;5090015;28;20316;-64
2023/04/13 00:32:25;;;;;;;17.63;13.68;;;;;;;11.10;41.85;150081.09;5088339;28;20062;-63
2023/04/13 00:34:52;;;;;;;18.30;13.25;;;;;;;11.14;41.83;150092.63;5087961;28;20027;-63
2023/04/13 00:37:18;;;;;;;14.77;12.70;;;;;;;11.18;42.01;150101.63;5103710;28;20137;-63
2023/04/13 00:39:45;;;;;;;16.92;13.80;;;;;;;11.14;41.54;150092.63;5083870;28;20033;-66
2023/04/13 00:42:12;;;;;;;16.58;13.25;;;;;;;11.21;41.69;150109.31;5083357;28;20031;-65
2023/04/13 00:44:38;;;;;;;18.48;12.98;;;;;;;11.27;42.30;150123.44;5094198;28;20047;-65
2023/04/13 00:47:05;;;;;;;17.55;12.50;;;;;;;11.24;42.31;150117.00;5096765;28;20161;-64
2023/04/13 00:49:34;;;;;;;21.25;13.52;;;;;;;11.04;42.01;150066.97;5084804;28;20028;-65
2023/04/13 00:52:01;;;;;;;18.52;13.63;;;;;;;11.12;42.56;150087.53;5103621;28;20084;-65
2023/04/13 00:54:28;;;;;;;16.70;12.52;;;;;;;11.24;42.71;150117.00;5085926;28;20039;-64
2023/04/13 00:56:56;;;;;;;21.13;13.10;;;;;;;11.23;42.66;150115.75;5096062;28;20055;-65
2023/04/13 00:59:22;;;;;;;17.13;13.02;;;;;;;11.21;43.62;150110.59;5095221;28;20035;-65
2023/04/13 01:01:55;;;;;;;18.85;14.13;;;;;;;11.10;42.63;150082.41;5085673;28;20160;-64
2023/04/13 01:04:22;;;;;;;15.48;12.50;;;;;;;11.07;43.16;150073.41;5103352;28;20350;-63
2023/04/13 01:07:12;;;;;;;21.25;13.70;;;;;;;11.14;43.82;150092.63;5083381;28;20187;-64
2023/04/13 01:09:44;;;;;;;17.85;13.18;;;;;;;11.03;43.10;150064.41;5102029;28;20056;-63
2023/04/13 01:12:17;;;;;;;19.75;13.48;;;;;;;11.04;44.05;150066.97;5088156;28;20213;-64
2023/04/13 01:15:02;;;;;;;17.08;13.82;;;;;;;10.82;42.84;150011.84;5094218;28;20231;-63
2023/04/13 01:17:31;;;;;;;22.52;13.93;;;;;;;10.85;43.54;150019.53;5093142;28;20062;-64
2023/04/13 01:20:00;;;;;;;19.17;13.70;;;;;;;10.88;43.66;150028.50;5087839;28;20093;-64
2023/04/13 01:22:31;;;;;;;19.95;13.23;;;;;;;10.84;44.45;150016.97;5105781;28;20343;-64
2023/04/13 01:25:16;;;;;;;18.23;13.30;;;;;;;10.91;44.14;150033.66;5087563;28;20298;-64
2023/04/13 01:27:45;;;;;;;19.52;13.15;;;;;;;10.90;43.27;150031.06;5106468;28;20036;-63
2023/04/13 01:30:13;;;;;;;20.63;14.10;;;;;;;10.78;44.31;150002.84;5092203;28;20028;-65
2023/04/13 01:32:41;;;;;;;20.88;13.60;;;;;;;10.84;44.22;150018.22;5092492;28;20031;-65
2023/04/13 01:35:09;;;;;;;24.05;14.27;;;;;;;10.85;44.17;150020.81;5085669;28;20047;-64
2023/04/13 01:37:41;;;;;;;18.20;14.10;;;;;;;10.80;45.30;150008.00;5088544;28;20032;-64
2023/04/13 01:40:11;;;;;;;21.13;14.05;;;;;;;10.80;44.96;150008.00;5107378;28;20125;-64
2023/04/13 01:42:41;;;;;;;19.55;14.48;;;;;;;10.76;45.53;149996.44;5088643;28;20024;-63
2023/04/13 01:45:22;;;;;;;19.17;14.52;;;;;;;10.73;45.84;149990.06;5100874;28;20331;-64
2023/04/13 01:48:12;;;;;;;23.02;14.55;;;;;;;10.73;45.39;149990.06;5094060;28;20069;-64
2023/04/13 01:50:44;;;;;;;19.73;13.63;;;;;;;10.61;46.45;149959.25;5096803;28;20073;-64
2023/04/13 01:53:16;;;;;;;18.13;13.82;;;;;;;10.69;45.34;149979.78;5099067;28;20263;-64
2023/04/13 01:55:43;;;;;;;22.75;14.15;;;;;;;10.64;46.15;149966.94;5088925;28;20036;-64
2023/04/13 01:58:12;;;;;;;24.40;15.13;;;;;;;10.63;45.53;149964.38;5106546;28;20047;-64
2023/04/13 02:00:39;;;;;;;19.17;13.52;;;;;;;10.57;45.52;149950.25;5088608;28;20189;-64
2023/04/13 02:03:07;;;;;;;20.73;14.82;;;;;;;10.46;45.14;149923.34;5100122;28;20020;-64
2023/04/13 02:05:36;;;;;;;22.00;15.02;;;;;;;10.49;45.72;149931.03;5097462;28;20028;-63
2023/04/13 02:08:04;;;;;;;15.88;14.10;;;;;;;10.46;46.66;149923.34;5093590;28;20032;-63
2023/04/13 02:10:34;;;;;;;19.98;13.52;;;;;;;10.49;46.01;149929.78;5091196;28;20218;-64
2023/04/13 02:13:03;;;;;;;20.42;13.85;;;;;;;10.42;46.13;149913.09;5106746;28;20031;-65
2023/04/13 02:15:30;;;;;;;20.00;14.15;;;;;;;10.36;47.16;149897.66;5088271;28;20021;-64
2023/04/13 02:17:55;;;;;;;22.88;14.52;;;;;;;10.29;47.33;149881.00;5098542;28;20028;-65
2023/04/13 02:20:21;;;;;;;20.83;14.65;;;;;;;10.30;46.21;149882.25;5098646;28;20039;-65
2023/04/13 02:22:46;;;;;;;18.67;14.32;;;;;;;10.25;46.13;149870.72;5088594;28;20024;-64
2023/04/13 02:25:14;;;;;;;19.63;13.73;;;;;;;10.14;45.94;149842.50;5106346;28;20132;-64
2023/04/13 02:27:40;;;;;;;16.10;13.77;;;;;;;10.04;46.70;149818.16;5087452;28;20325;-65
2023/04/13 02:30:08;;;;;;;17.63;13.57;;;;;;;10.05;47.08;149819.41;5099390;28;20040;-64
2023/04/13 02:32:39;;;;;;;18.77;13.70;;;;;;;9.95;47.22;149795.09;5099288;28;20031;-65
2023/04/13 02:35:10;;;;;;;18.90;13.65;;;;;;;10.05;48.03;149820.72;5100890;28;20205;-65
2023/04/13 02:37:38;;;;;;;20.63;14.07;;;;;;;10.04;47.55;149818.16;5087786;28;20213;-64
2023/04/13 02:40:11;;;;;;;20.92;13.77;;;;;;;9.96;47.31;149798.94;5085741;28;20225;-65
2023/04/13 02:42:41;;;;;;;18.60;14.65;;;;;;;10.01;47.13;149810.47;5103722;28;20020;-64
2023/04/13 02:45:11;;;;;;;20.65;15.07;;;;;;;9.98;47.73;149802.78;5092214;28;20088;-63
2023/04/13 02:47:37;;;;;;;18.35;14.25;;;;;;;9.96;46.74;149798.94;5085848;28;20042;-63
2023/04/13 02:50:03;;;;;;;17.67;14.00;;;;;;;10.04;47.48;149818.16;5085321;28;20076;-63
2023/04/13 02:52:30;;;;;;;16.73;14.70;;;;;;;10.13;47.92;149841.25;5085765;28;20091;-64
2023/04/13 02:54:56;;;;;;;19.45;13.55;;;;;;;10.10;46.14;149833.53;5105899;28;20036;-63
2023/04/13 02:57:23;;;;;;;20.00;14.23;;;;;;;10.17;47.58;149850.19;5089841;28;20029;-63
2023/04/13 02:59:50;;;;;;;21.83;14.60;;;;;;;10.11;46.17;149836.09;5096493;28;20032;-62
2023/04/13 03:02:16;;;;;;;21.55;14.75;;;;;;;10.22;46.49;149861.72;5105563;28;20059;-63
2023/04/13 03:04:43;;;;;;;23.15;14.77;;;;;;;10.18;45.94;149852.78;5105380;28;20087;-64
2023/04/13 03:07:09;;;;;;;18.17;13.82;;;;;;;10.17;45.82;149850.19;5105593;28;20043;-63
2023/04/13 03:09:42;;;;;;;19.73;14.88;;;;;;;10.00;46.21;149809.22;5088048;28;20182;-63
2023/04/13 03:12:08;;;;;;;19.40;14.50;;;;;;;10.06;46.61;149823.31;5085134;28;20036;-63
2023/04/13 03:14:35;;;;;;;21.17;14.57;;;;;;;10.20;46.20;149857.88;5093897;28;20339;-63
2023/04/13 03:17:02;;;;;;;18.05;14.27;;;;;;;10.17;46.28;149850.19;5101115;28;20032;-63
2023/04/13 03:19:28;;;;;;;18.63;14.70;;;;;;;10.12;46.26;149838.69;5084979;28;20055;-63
2023/04/13 03:21:54;;;;;;;21.30;14.88;;;;;;;10.05;46.99;149820.72;5105194;28;20035;-63
2023/04/13 03:24:20;;;;;;;20.88;14.07;;;;;;;10.06;47.07;149823.31;5089943;28;20074;-63
2023/04/13 03:26:46;;;;;;;20.05;14.23;;;;;;;10.04;46.19;149816.88;5095373;28;20212;-64
2023/04/13 03:29:11;;;;;;;19.48;14.27;;;;;;;10.26;45.57;149872.00;5099353;28;20205;-62
2023/04/13 03:31:37;;;;;;;17.30;13.95;;;;;;;10.44;46.29;149918.19;5090009;28;20057;-63
2023/04/13 03:34:03;;;;;;;17.88;13.80;;;;;;;10.33;45.91;149889.94;5084451;28;20036;-63
2023/04/13 03:36:28;;;;;;;24.13;15.13;;;;;;;10.49;45.90;149929.78;5084569;28;20055;-63
2023/04/13 03:38:55;;;;;;;21.13;14.52;;;;;;;10.66;45.92;149973.38;5095055;28;20023;-63
2023/04/13 03:41:22;;;;;;;17.60;14.20;;;;;;;10.38;45.40;149902.81;5098210;28;20032;-63
2023/04/13 03:43:48;;;;;;;16.52;14.02;;;;;;;10.44;45.19;149918.19;5085978;28;20032;-62
2023/04/13 03:46:14;;;;;;;20.40;14.65;;;;;;;10.22;45.78;149863.03;5105046;28;20054;-64
2023/04/13 03:48:40;;;;;;;23.02;15.48;;;;;;;10.20;46.07;149857.88;5084596;28;20060;-63
2023/04/13 03:51:06;;;;;;;18.27;14.15;;;;;;;10.30;46.01;149882.25;5097169;28;20028;-63
2023/04/13 03:53:35;;;;;;;21.65;14.85;;;;;;;10.33;45.80;149889.94;5095036;28;20097;-64
2023/04/13 03:56:01;;;;;;;19.65;14.90;;;;;;;10.31;45.85;149886.09;5087792;28;20042;-63
2023/04/13 03:58:26;;;;;;;21.45;14.10;;;;;;;10.19;45.31;149855.34;5104503;28;20019;-63
2023/04/13 04:00:52;;;;;;;23.90;14.85;;;;;;;10.11;45.51;149836.09;5083635;28;20050;-63
2023/04/13 04:03:18;;;;;;;19.85;15.43;;;;;;;10.15;45.71;149846.34;5083853;28;20033;-63
2023/04/13 04:05:44;;;;;;;19.33;14.68;;;;;;;10.06;46.08;149822.00;5093729;28;20035;-63
2023/04/13 04:08:10;;;;;;;19.98;14.48;;;;;;;10.30;45.42;149883.56;5103995;28;20252;-63
2023/04/13 04:10:35;;;;;;;19.77;14.73;;;;;;;10.31;45.63;149884.81;5097239;28;20024;-64
2023/04/13 04:13:01;;;;;;;19.75;14.60;;;;;;;10.30;45.93;149882.25;5099221;28;20028;-64
2023/04/13 04:15:27;;;;;;;20.02;13.95;;;;;;;10.48;45.30;149927.19;5083542;28;20095;-63
2023/04/13 04:17:53;;;;;;;26.17;14.98;;;;;;;10.50;45.76;149933.63;5094713;28;20028;-63
2023/04/13 04:20:18;;;;;;;19.25;14.75;;;;;;;10.42;45.30;149913.09;5103805;28;20027;-63
2023/04/13 04:22:46;;;;;;;21.25;14.85;;;;;;;10.40;45.68;149907.94;5102847;28;20042;-63
2023/04/13 04:25:20;;;;;;;24.52;14.10;;;;;;;10.45;45.53;149920.78;5084021;28;20228;-64
2023/04/13 04:27:48;;;;;;;24.70;13.85;;;;;;;10.54;45.32;149942.56;5104897;28;20039;-64
2023/04/13 04:30:14;;;;;;;24.38;13.63;;;;;;;10.51;45.07;149934.88;5110372;28;20094;-63
2023/04/13 04:32:40;;;;;;;27.58;14.90;;;;;;;10.52;44.86;149937.47;5096676;28;20312;-64
2023/04/13 04:35:07;;;;;;;22.25;14.25;;;;;;;10.66;45.03;149973.38;5099405;28;20029;-63
2023/04/13 04:37:36;;;;;;;23.92;14.57;;;;;;;10.62;44.64;149963.09;5082185;28;20190;-64
2023/04/13 04:40:10;;;;;;;21.17;13.50;;;;;;;10.56;44.51;149947.72;5083313;28;20028;-64
2023/04/13 04:42:36;;;;;;;23.10;14.27;;;;;;;10.78;44.27;150001.59;5083074;28;20040;-63
2023/04/13 04:45:05;;;;;;;19.90;13.27;;;;;;;10.60;44.45;149956.69;5095335;28;20031;-62
2023/04/13 04:47:36;;;;;;;17.52;13.32;;;;;;;10.85;44.20;150020.81;5092830;28;20031;-63
2023/04/13 04:50:02;;;;;;;16.52;14.10;;;;;;;10.84;43.90;150016.97;5086606;28;20099;-65
2023/04/13 04:52:28;;;;;;;20.83;14.32;;;;;;;10.80;44.17;150008.00;5103414;28;20043;-64
2023/04/13 04:54:54;;;;;;;19.50;13.80;;;;;;;10.96;43.80;150047.75;5084694;28;20032;-63
2023/04/13 04:57:19;;;;;;;21.20;14.55;;;;;;;10.96;44.03;150046.44;5082890;28;20047;-65
2023/04/13 04:59:45;;;;;;;19.90;14.07;;;;;;;11.11;44.09;150084.94;5083205;28;20020;-64
2023/04/13 05:02:10;;;;;;;20.80;14.00;;;;;;;10.96;44.12;150047.75;5086484;28;20024;-65
2023/04/13 05:04:38;;;;;;;17.63;13.65;;;;;;;10.64;44.25;149966.94;5103444;28;20024;-64
2023/04/13 05:07:04;;;;;;;18.63;12.98;;;;;;;10.57;45.16;149949.00;5083331;28;20025;-65
2023/04/13 05:09:30;;;;;;;18.00;13.52;;;;;;;10.56;45.29;149947.72;5098608;28;20091;-65
2023/04/13 05:11:56;;;;;;;16.60;13.27;;;;;;;10.69;44.78;149981.06;5092141;28;20032;-66
2023/04/13 05:14:22;;;;;;;18.48;12.75;;;;;;;10.89;44.41;150029.81;5082595;28;20076;-63
2023/04/13 05:16:48;;;;;;;19.65;13.73;;;;;;;10.87;44.45;150025.97;5083209;28;20059;-63
2023/04/13 05:19:14;;;;;;;19.75;13.65;;;;;;;11.02;44.81;150061.88;5083270;28;20039;-64
2023/04/13 05:21:40;;;;;;;19.63;14.30;;;;;;;11.11;44.10;150084.94;5081061;28;20048;-63
2023/04/13 05:24:05;;;;;;;16.20;12.77;;;;;;;11.11;43.86;150083.69;5080779;28;20187;-62
2023/04/13 05:26:31;;;;;;;15.43;13.23;;;;;;;11.09;43.93;150078.50;5080886;28;20244;-63
2023/04/13 05:28:56;;;;;;;18.13;13.50;;;;;;;11.27;43.85;150123.44;5081007;28;20036;-63
2023/04/13 05:31:25;;;;;;;19.75;13.13;;;;;;;11.37;44.14;150149.09;5087928;28;20038;-63
2023/04/13 05:33:51;;;;;;;17.10;12.73;;;;;;;11.62;43.77;150210.72;5084634;28;20095;-64
2023/04/13 05:36:17;;;;;;;18.00;12.98;;;;;;;11.83;42.67;150264.63;5082598;28;20036;-64
2023/04/13 05:38:42;;;;;;;18.67;13.85;;;;;;;12.02;42.46;150312.16;5091708;28;20275;-64
2023/04/13 05:41:09;;;;;;;18.15;12.90;;;;;;;11.98;42.67;150300.63;5099013;28;20231;-63
2023/04/13 05:43:35;;;;;;;19.58;13.10;;;;;;;12.21;42.55;150358.38;5082843;28;20044;-64
2023/04/13 05:46:00;;;;;;;18.13;12.50;;;;;;;12.04;42.19;150316.00;5083144;28;20036;-65
2023/04/13 05:48:26;;;;;;;21.52;12.90;;;;;;;12.38;42.24;150400.75;5097191;28;20031;-63
2023/04/13 05:50:57;;;;;;;20.27;13.13;;;;;;;12.73;41.28;150489.38;5091908;28;20044;-65
2023/04/13 05:53:22;;;;;;;17.40;12.68;;;;;;;12.91;40.35;150534.38;5088330;28;20051;-65
2023/04/13 05:55:48;;;;;;;20.17;12.85;;;;;;;12.75;40.03;150494.53;5101888;28;20027;-64
2023/04/13 05:58:14;;;;;;;17.70;11.90;;;;;;;12.87;41.24;150522.75;5082921;28;20024;-65
2023/04/13 06:00:40;;;;;;;15.15;13.25;;;;;;;13.12;40.25;150585.72;5098511;28;20047;-64
2023/04/13 06:03:06;;;;;;;21.83;13.52;;;;;;;13.33;40.28;150637.16;5098852;28;20035;-63
2023/04/13 06:05:34;;;;;;;17.50;12.63;;;;;;;13.30;39.71;150632.00;5095767;28;20029;-64
2023/04/13 06:08:00;;;;;;;24.67;12.68;;;;;;;13.31;39.51;150633.31;5095647;28;20042;-64
2023/04/13 06:10:25;;;;;;;17.45;13.02;;;;;;;13.46;38.80;150670.59;5096739;28;20032;-64
2023/04/13 06:12:52;;;;;;;16.15;12.27;;;;;;;13.75;38.29;150742.56;5088154;28;20036;-64
2023/04/13 06:15:18;;;;;;;17.23;12.20;;;;;;;14.24;37.93;150866.03;5100899;28;20064;-66
2023/04/13 06:17:44;;;;;;;18.10;11.95;;;;;;;14.75;37.87;150992.09;5086266;28;20024;-68
2023/04/13 06:20:10;;;;;;;16.00;11.77;;;;;;;15.19;36.94;151102.75;5089081;28;20020;-67
2023/04/13 06:22:36;;;;;;;17.02;12.95;;;;;;;15.42;36.00;151159.38;5086295;28;20031;-66
2023/04/13 06:25:01;;;;;;;16.65;11.23;;;;;;;15.46;35.18;151171.00;5105285;28;20028;-64
2023/04/13 06:27:31;;;;;;;19.50;10.70;;;;;;;14.93;35.79;151038.41;5091794;28;20020;-64
2023/04/13 06:29:57;;;;;;;18.20;11.85;;;;;;;15.37;35.65;151147.81;5095867;28;20324;-64
2023/04/13 06:32:22;;;;;;;19.90;11.63;;;;;;;15.20;36.09;151105.34;5097841;28;20042;-65
2023/04/13 06:34:48;;;;;;;21.08;11.82;;;;;;;14.99;36.04;151053.88;5105562;28;20251;-65
2023/04/13 06:37:14;;;;;;;14.95;12.13;;;;;;;15.09;35.45;151077.03;5085581;28;20063;-66
2023/04/13 06:39:40;;;;;;;17.27;10.77;;;;;;;15.30;35.68;151129.78;5101581;28;20095;-65
2023/04/13 06:42:06;;;;;;;14.10;10.50;;;;;;;15.00;35.74;151056.44;5093019;28;20040;-65
2023/04/13 06:44:31;;;;;;;13.73;10.73;;;;;;;14.92;35.84;151035.88;5092274;28;20046;-65
2023/04/13 06:46:57;;;;;;;13.02;10.43;;;;;;;14.93;35.90;151037.16;5104213;28;20166;-65
2023/04/13 06:49:22;;;;;;;17.40;11.70;;;;;;;14.69;35.88;150977.94;5088765;28;20434;-65
2023/04/13 06:51:48;;;;;;;16.92;11.00;;;;;;;15.41;35.22;151156.84;5093791;28;20048;-64
2023/04/13 06:54:14;;;;;;;20.50;11.45;;;;;;;15.61;35.28;151207.03;5104205;28;20031;-64
2023/04/13 06:56:40;;;;;;;12.00;10.60;;;;;;;15.12;35.76;151086.06;5105441;28;20032;-63
2023/04/13 06:59:05;;;;;;;18.15;11.23;;;;;;;15.23;36.02;151111.78;5096000;28;20039;-64
2023/04/13 07:01:31;;;;;;;15.13;11.27;;;;;;;15.52;35.54;151185.16;5088467;28;20340;-64
2023/04/13 07:03:57;;;;;;;15.93;10.68;;;;;;;15.60;35.16;151205.72;5095059;28;20091;-66
2023/04/13 07:06:23;;;;;;;13.35;10.63;;;;;;;16.24;34.47;151364.16;5084944;28;20246;-67
2023/04/13 07:08:48;;;;;;;14.30;10.70;;;;;;;16.07;34.62;151322.94;5093459;28;20043;-69
2023/04/13 07:11:14;;;;;;;16.35;10.80;;;;;;;16.56;33.98;151446.59;5104663;28;20100;-70
2023/04/13 07:13:40;;;;;;;20.00;10.90;;;;;;;16.55;33.89;151442.72;5102299;28;20021;-67
2023/04/13 07:16:11;;;;;;;15.15;10.52;;;;;;;16.62;33.57;151459.50;5104030;28;20039;-67
2023/04/13 07:18:37;;;;;;;11.10;9.98;;;;;;;16.30;34.19;151379.59;5089351;28;20239;-66
2023/04/13 07:21:03;;;;;;;13.88;9.73;;;;;;;16.12;34.57;151334.50;5083221;28;20024;-67
2023/04/13 07:23:29;;;;;;;12.50;9.82;;;;;;;16.57;34.09;151447.84;5083804;28;20029;-68
2023/04/13 07:25:54;;;;;;;13.77;9.82;;;;;;;16.36;33.89;151396.34;5084764;28;20039;-66
2023/04/13 07:28:20;;;;;;;16.42;9.43;;;;;;;16.45;33.35;151418.25;5104333;28;20058;-68
2023/04/13 07:30:46;;;;;;;13.60;9.15;;;;;;;16.58;33.44;151449.19;5099269;28;20193;-67
2023/04/13 07:33:12;;;;;;;10.80;8.38;;;;;;;15.92;33.44;151285.63;5084193;28;20094;-67
2023/04/13 07:35:38;;;;;;;12.77;8.77;;;;;;;16.23;33.17;151362.84;5084100;28;20032;-68
2023/04/13 07:38:04;;;;;;;13.85;8.35;;;;;;;16.61;33.09;151458.16;5086325;28;20359;-68
2023/04/13 07:40:30;;;;;;;12.05;8.50;;;;;;;16.85;33.06;151517.44;5104412;28;20396;-67
2023/04/13 07:42:56;;;;;;;14.23;7.35;;;;;;;16.49;32.85;151428.56;5086809;28;20074;-69
2023/04/13 07:45:22;;;;;;;22.02;7.70;;;;;;;16.47;33.36;151422.09;5092271;28;20202;-67
2023/04/13 07:47:48;;;;;;;11.65;7.35;;;;;;;16.21;32.68;151358.97;5084239;28;20150;-68
2023/04/13 07:50:15;;;;;;;12.60;7.53;;;;;;;16.49;32.84;151427.25;5084485;28;20087;-67
2023/04/13 07:52:41;;;;;;;13.90;7.13;;;;;;;16.07;33.62;151321.66;5083869;28;20321;-67
2023/04/13 07:55:08;;;;;;;12.27;7.75;;;;;;;16.71;33.06;151483.91;5103117;28;20128;-67
2023/04/13 07:57:33;;;;;;;9.30;7.78;;;;;;;16.60;32.80;151455.56;5089756;28;20059;-67
2023/04/13 07:59:59;;;;;;;14.23;8.05;;;;;;;16.51;33.06;151433.69;5083813;28;20029;-66
2023/04/13 08:02:25;;;;;;;10.73;6.40;;;;;;;16.26;32.92;151369.28;5087941;28;20248;-67
2023/04/13 08:04:51;;;;;;;10.55;6.63;;;;;;;16.20;32.52;151355.13;5098688;28;20274;-67
2023/04/13 08:07:17;;;;;;;9.25;7.43;;;;;;;16.36;32.55;151395.03;5101373;28;20077;-67
2023/04/13 08:09:47;;;;;;;11.40;7.10;;;;;;;16.79;32.56;151501.97;5087134;28;20092;-68
2023/04/13 08:12:13;;;;;;;12.07;6.70;;;;;;;16.48;32.80;151424.69;5083733;28;20168;-66
2023/04/13 08:14:38;;;;;;;21.02;6.93;;;;;;;16.32;32.65;151384.78;5095141;28;20040;-67
2023/04/13 08:17:04;;;;;;;12.00;6.15;;;;;;;16.26;32.39;151369.28;5101993;28;20351;-66
2023/04/13 08:19:31;;;;;;;10.55;5.78;;;;;;;16.25;32.69;151368.03;5083490;28;20035;-69
2023/04/13 08:21:59;;;;;;;8.10;6.32;;;;;;;16.54;32.22;151440.13;5085632;28;20054;-67
2023/04/13 08:24:26;;;;;;;21.63;6.05;;;;;;;16.53;31.58;151438.88;5095219;28;20150;-66
2023/04/13 08:26:57;;;;;;;16.35;4.90;;;;;;;16.52;31.01;151436.28;5094816;28;20029;-67
2023/04/13 08:29:23;;;;;;;10.30;4.65;;;;;;;16.22;31.27;151360.31;5090162;28;20046;-66
2023/04/13 08:31:49;;;;;;;10.98;4.53;;;;;;;16.32;30.79;151386.06;5093573;28;20081;-67
2023/04/13 08:34:16;;;;;;;8.18;3.78;;;;;;;16.31;30.20;151383.47;5081790;28;20275;-67
2023/04/13 08:36:44;;;;;;;11.75;4.07;;;;;;;16.42;30.08;151410.53;5098642;28;20128;-66
2023/04/13 08:39:10;;;;;;;6.45;3.50;;;;;;;16.39;30.21;151404.09;5091930;28;20020;-68
2023/04/13 08:41:37;;;;;;;7.05;3.35;;;;;;;16.38;29.97;151401.50;5086245;28;20020;-69
2023/04/13 08:44:05;;;;;;;9.48;3.65;;;;;;;16.51;30.20;151432.41;5081822;28;20032;-69
2023/04/13 08:46:32;;;;;;;12.65;3.67;;;;;;;16.22;29.97;151361.56;5083374;28;20078;-67
2023/04/13 08:48:58;;;;;;;6.43;3.75;;;;;;;16.49;30.00;151427.25;5083046;28;20036;-67
2023/04/13 08:51:25;;;;;;;10.07;4.20;;;;;;;16.92;28.95;151535.53;5095675;28;20373;-67
2023/04/13 08:53:57;;;;;;;9.25;3.67;;;;;;;16.82;29.46;151509.72;5095550;28;20061;-65
2023/04/13 08:56:24;;;;;;;7.68;3.80;;;;;;;16.69;29.16;151478.78;5090182;28;20051;-69
2023/04/13 08:58:55;;;;;;;5.32;3.50;;;;;;;16.79;29.60;151501.97;5102268;28;20030;-67
2023/04/13 09:01:22;;;;;;;13.07;3.40;;;;;;;16.82;29.20;151509.72;5091550;28;20036;-67
2023/04/13 09:03:53;;;;;;;8.13;2.78;;;;;;;16.33;29.36;151388.66;5087247;28;20036;-66
2023/04/13 09:06:25;;;;;;;8.05;3.42;;;;;;;16.33;29.17;151388.66;5095003;28;20031;-67
2023/04/13 09:08:54;;;;;;;9.85;3.65;;;;;;;16.71;29.51;151482.66;5095137;28;20028;-67
2023/04/13 09:11:20;;;;;;;5.70;3.70;;;;;;;16.78;29.06;151499.41;5084098;28;20079;-67
2023/04/13 09:13:51;;;;;;;6.40;3.28;;;;;;;16.79;28.94;151503.28;5083834;28;20032;-69
2023/04/13 09:16:18;;;;;;;7.63;3.72;;;;;;;17.22;28.92;151611.53;5100068;28;20116;-63
2023/04/13 09:18:56;;;;;;;11.68;3.53;;;;;;;16.92;29.03;151535.53;5087819;28;20032;-64
2023/04/13 09:21:34;;;;;;;8.38;3.55;;;;;;;16.97;29.59;151548.38;5091126;28;20032;-63
2023/04/13 09:24:00;;;;;;;4.45;3.30;;;;;;;16.59;28.82;151453.03;5090794;28;20140;-63
2023/04/13 09:26:26;;;;;;;7.20;3.10;;;;;;;17.04;28.61;151566.44;5091003;28;20032;-65
2023/04/13 09:28:55;;;;;;;5.18;2.97;;;;;;;17.18;28.39;151601.22;5091621;28;20362;-64
2023/04/13 09:31:21;;;;;;;10.35;3.08;;;;;;;17.24;28.08;151615.41;5090628;28;20020;-65
2023/04/13 09:33:51;;;;;;;5.25;3.55;;;;;;;17.28;28.51;151625.72;5087205;28;20024;-66
2023/04/13 09:36:20;;;;;;;8.15;3.15;;;;;;;17.10;28.40;151579.34;5082632;28;20198;-64
2023/04/13 09:38:54;;;;;;;6.90;2.67;;;;;;;16.94;27.75;151540.66;5086296;28;20062;-64
2023/04/13 09:41:35;;;;;;;4.47;2.75;;;;;;;17.16;27.47;151594.78;5085480;28;20036;-66
2023/04/13 09:44:26;;;;;;;3.30;2.95;;;;;;;16.93;27.33;151538.13;5105918;28;20384;-66
2023/04/13 09:47:00;;;;;;;7.10;3.53;;;;;;;17.13;28.14;151587.06;5086582;28;20392;-67
2023/04/13 09:49:38;;;;;;;5.07;3.28;;;;;;;17.01;27.69;151558.69;5086382;28;20240;-66
2023/04/13 09:52:07;;;;;;;4.82;2.92;;;;;;;17.29;27.91;151628.31;5086429;28;20493;-68
2023/04/13 09:54:32;;;;;;;7.30;3.08;;;;;;;16.88;27.99;151525.22;5100121;28;20043;-70
2023/04/13 09:56:58;;;;;;;5.00;2.95;;;;;;;17.26;28.10;151620.59;5096871;28;20205;-69
2023/04/13 09:59:26;;;;;;;4.55;3.08;;;;;;;17.43;27.67;151664.41;5090056;28;20028;-68
2023/04/13 10:01:53;;;;;;;6.20;3.20;;;;;;;17.74;28.04;151741.75;5089032;28;20050;-70
2023/04/13 10:04:19;;;;;;;4.65;3.58;;;;;;;18.07;28.11;151824.31;5106066;28;20042;-68
2023/04/13 10:06:46;;;;;;;6.55;3.00;;;;;;;17.71;27.83;151732.72;5091502;28;20254;-67
2023/04/13 10:09:13;;;;;;;4.60;3.40;;;;;;;17.30;28.01;151629.59;5085874;28;20028;-69
2023/04/13 10:11:49;;;;;;;5.78;3.53;;;;;;;17.62;27.80;151709.53;5091729;28;20027;-68
2023/04/13 10:14:24;;;;;;;6.97;3.42;;;;;;;17.64;27.03;151715.94;5098272;28;20131;-67
2023/04/13 10:17:24;;;;;;;5.85;3.50;;;;;;;17.56;26.93;151696.63;5084513;28;20050;-66
2023/04/13 10:19:52;;;;;;;6.55;3.38;;;;;;;17.40;27.92;151655.34;5090670;28;20038;-65
2023/04/13 10:22:21;;;;;;;7.13;3.67;;;;;;;17.15;27.73;151592.22;5100694;28;20095;-67
2023/04/13 10:24:47;;;;;;;6.28;3.35;;;;;;;17.13;27.87;151587.06;5090580;28;20028;-68
2023/04/13 10:27:15;;;;;;;5.43;3.20;;;;;;;17.52;27.55;151686.31;5095846;28;20080;-68
2023/04/13 10:29:41;;;;;;;8.50;3.33;;;;;;;17.28;28.05;151624.44;5097215;28;20043;-67
2023/04/13 10:32:07;;;;;;;4.97;2.90;;;;;;;17.40;26.94;151655.34;5093793;28;20036;-68
2023/04/13 10:34:36;;;;;;;10.27;3.45;;;;;;;17.12;27.11;151584.50;5103707;28;20024;-67
2023/04/13 10:37:03;;;;;;;7.50;3.38;;;;;;;17.23;27.29;151612.88;5089130;28;20086;-66
2023/04/13 10:39:37;;;;;;;10.75;3.65;;;;;;;17.43;27.68;151663.13;5092368;28;20065;-67
2023/04/13 10:42:07;;;;;;;4.25;2.90;;;;;;;17.08;27.08;151575.47;5092049;28;20040;-66
2023/04/13 10:44:46;;;;;;;6.32;4.20;;;;;;;17.35;27.25;151642.50;5095022;28;20066;-65
2023/04/13 10:47:13;;;;;;;5.75;3.17;;;;;;;17.48;27.04;151675.97;5092301;28;20297;-66
2023/04/13 10:49:40;;;;;;;4.88;3.17;;;;;;;17.58;27.41;151700.47;5102525;28;20067;-66
2023/04/13 10:52:06;;;;;;;4.82;3.10;;;;;;;17.48;26.70;151674.72;5089475;28;20146;-68
2023/04/13 10:54:33;;;;;;;4.22;3.40;;;;;;;17.48;26.43;151674.72;5091894;28;20047;-68
2023/04/13 10:57:02;;;;;;;6.70;2.92;;;;;;;17.56;26.41;151695.34;5093256;28;20036;-67
2023/04/13 10:59:40;;;;;;;6.00;2.97;;;;;;;17.58;26.06;151700.47;5117607;28;20024;-66
2023/04/13 11:02:10;;;;;;;7.63;3.25;;;;;;;17.93;26.53;151788.22;5104236;28;20040;-69
2023/04/13 11:04:41;;;;;;;5.78;3.33;;;;;;;17.42;26.65;151661.81;5085220;28;20037;-67
2023/04/13 11:07:11;;;;;;;4.80;3.03;;;;;;;17.24;26.67;151616.72;5102792;28;20138;-67
2023/04/13 11:09:40;;;;;;;3.20;2.72;;;;;;;17.32;27.27;151634.75;5098695;28;20035;-67
2023/04/13 11:12:09;;;;;;;6.85;3.03;;;;;;;17.15;26.96;151593.50;5081993;28;20036;-66
2023/04/13 11:14:37;;;;;;;5.55;3.00;;;;;;;16.98;27.13;151550.97;5087992;28;20024;-67
2023/04/13 11:17:07;;;;;;;7.22;3.08;;;;;;;16.93;26.65;151536.81;5084628;28;20036;-67